sensor_id;sensor_type;location;lat;lon;timestamp;P1;durP1;ratioP1;P2;durP2;ratioP2
51560;SDS011;37654;51.262;17.058;2023-04-16T00:00:40;40.63;;;20.83;;
51560;SDS011;37654;51.262;17.058;2023-04-16T00:03:06;40.30;;;21.67;;
51560;SDS011;37654;51.262;17.058;2023-04-16T00:05:31;41.15;;;22.27;;
51560;SDS011;37654;51.262;17.058;2023-04-16T00:07:57;38.30;;;19.95;;
51560;SDS011;37654;51.262;17.058;2023-04-16T00:10:22;37.72;;;20.70;;
51560;SDS011;37654;51.262;17.058;2023-04-16T00:12:47;40.78;;;22.27;;
51560;SDS011;37654;51.262;17.058;2023-04-16T00:15:13;39.50;;;20.23;;
51560;SDS011;37654;51.262;17.058;2023-04-16T00:17:39;38.95;;;22.15;;
51560;SDS011;37654;51.262;17.058;2023-04-16T00:20:04;39.45;;;21.70;;
51560;SDS011;37654;51.262;17.058;2023-04-16T00:22:30;44.53;;;24.77;;
51560;SDS011;37654;51.262;17.058;2023-04-16T00:24:56;43.45;;;24.90;;
51560;SDS011;37654;51.262;17.058;2023-04-16T00:27:21;44.45;;;24.60;;
51560;SDS011;37654;51.262;17.058;2023-04-16T00:29:47;43.35;;;22.40;;
51560;SDS011;37654;51.262;17.058;2023-04-16T00:32:12;43.08;;;22.98;;
51560;SDS011;37654;51.262;17.058;2023-04-16T00:34:38;49.13;;;25.55;;
51560;SDS011;37654;51.262;17.058;2023-04-16T00:37:03;50.33;;;27.17;;
51560;SDS011;37654;51.262;17.058;2023-04-16T00:39:28;50.90;;;25.77;;
51560;SDS011;37654;51.262;17.058;2023-04-16T00:41:54;44.35;;;24.20;;
51560;SDS011;37654;51.262;17.058;2023-04-16T00:44:19;50.55;;;26.42;;
51560;SDS011;37654;51.262;17.058;2023-04-16T00:46:45;45.60;;;24.08;;
51560;SDS011;37654;51.262;17.058;2023-04-16T00:49:10;42.30;;;22.33;;
51560;SDS011;37654;51.262;17.058;2023-04-16T00:51:36;50.55;;;26.45;;
51560;SDS011;37654;51.262;17.058;2023-04-16T00:54:02;57.55;;;30.02;;
51560;SDS011;37654;51.262;17.058;2023-04-16T00:56:28;58.78;;;29.55;;
51560;SDS011;37654;51.262;17.058;2023-04-16T00:58:54;61.22;;;29.13;;
51560;SDS011;37654;51.262;17.058;2023-04-16T01:01:22;60.38;;;27.40;;
51560;SDS011;37654;51.262;17.058;2023-04-16T01:03:48;52.03;;;27.15;;
51560;SDS011;37654;51.262;17.058;2023-04-16T01:06:15;46.97;;;25.58;;
51560;SDS011;37654;51.262;17.058;2023-04-16T01:08:41;51.60;;;27.92;;
51560;SDS011;37654;51.262;17.058;2023-04-16T01:11:08;57.83;;;28.58;;
51560;SDS011;37654;51.262;17.058;2023-04-16T01:13:35;65.35;;;31.17;;
51560;SDS011;37654;51.262;17.058;2023-04-16T01:16:06;59.75;;;32.28;;
51560;SDS011;37654;51.262;17.058;2023-04-16T01:18:33;60.70;;;31.45;;
51560;SDS011;37654;51.262;17.058;2023-04-16T01:20:59;64.75;;;31.63;;
51560;SDS011;37654;51.262;17.058;2023-04-16T01:23:24;66.65;;;33.40;;
51560;SDS011;37654;51.262;17.058;2023-04-16T01:25:50;60.08;;;29.80;;
51560;SDS011;37654;51.262;17.058;2023-04-16T01:28:16;58.53;;;29.95;;
51560;SDS011;37654;51.262;17.058;2023-04-16T01:30:41;55.08;;;28.60;;
51560;SDS011;37654;51.262;17.058;2023-04-16T01:33:09;58.85;;;29.30;;
51560;SDS011;37654;51.262;17.058;2023-04-16T01:35:35;54.97;;;27.23;;
51560;SDS011;37654;51.262;17.058;2023-04-16T01:38:00;53.17;;;25.60;;
51560;SDS011;37654;51.262;17.058;2023-04-16T01:40:26;58.05;;;28.17;;
51560;SDS011;37654;51.262;17.058;2023-04-16T01:42:51;58.67;;;28.58;;
51560;SDS011;37654;51.262;17.058;2023-04-16T01:45:17;48.20;;;24.77;;
51560;SDS011;37654;51.262;17.058;2023-04-16T01:47:42;47.80;;;24.42;;
51560;SDS011;37654;51.262;17.058;2023-04-16T01:50:08;42.55;;;22.73;;
51560;SDS011;37654;51.262;17.058;2023-04-16T01:52:33;39.85;;;21.98;;
51560;SDS011;37654;51.262;17.058;2023-04-16T01:54:59;45.65;;;22.85;;
51560;SDS011;37654;51.262;17.058;2023-04-16T01:57:24;49.45;;;24.10;;
51560;SDS011;37654;51.262;17.058;2023-04-16T01:59:50;48.33;;;23.63;;
51560;SDS011;37654;51.262;17.058;2023-04-16T02:02:15;49.85;;;24.15;;
51560;SDS011;37654;51.262;17.058;2023-04-16T02:04:41;48.88;;;24.40;;
51560;SDS011;37654;51.262;17.058;2023-04-16T02:07:09;52.58;;;26.90;;
51560;SDS011;37654;51.262;17.058;2023-04-16T02:09:35;62.13;;;30.48;;
51560;SDS011;37654;51.262;17.058;2023-04-16T02:12:02;63.15;;;30.17;;
51560;SDS011;37654;51.262;17.058;2023-04-16T02:14:28;59.05;;;28.70;;
51560;SDS011;37654;51.262;17.058;2023-04-16T02:16:54;65.05;;;31.42;;
51560;SDS011;37654;51.262;17.058;2023-04-16T02:19:19;65.72;;;32.63;;
51560;SDS011;37654;51.262;17.058;2023-04-16T02:21:45;69.28;;;34.47;;
51560;SDS011;37654;51.262;17.058;2023-04-16T02:24:11;72.53;;;35.65;;
51560;SDS011;37654;51.262;17.058;2023-04-16T02:26:37;90.53;;;39.33;;
51560;SDS011;37654;51.262;17.058;2023-04-16T02:29:03;92.65;;;40.05;;
51560;SDS011;37654;51.262;17.058;2023-04-16T02:31:29;115.30;;;42.28;;
51560;SDS011;37654;51.262;17.058;2023-04-16T02:33:55;103.93;;;44.88;;
51560;SDS011;37654;51.262;17.058;2023-04-16T02:36:20;115.07;;;46.13;;
51560;SDS011;37654;51.262;17.058;2023-04-16T02:38:46;116.65;;;44.35;;
51560;SDS011;37654;51.262;17.058;2023-04-16T02:41:11;103.15;;;42.92;;
51560;SDS011;37654;51.262;17.058;2023-04-16T02:43:37;101.45;;;42.10;;
51560;SDS011;37654;51.262;17.058;2023-04-16T02:46:02;109.03;;;43.03;;
51560;SDS011;37654;51.262;17.058;2023-04-16T02:48:28;105.00;;;42.70;;
51560;SDS011;37654;51.262;17.058;2023-04-16T02:50:53;105.88;;;42.00;;
51560;SDS011;37654;51.262;17.058;2023-04-16T02:53:19;113.55;;;43.42;;
51560;SDS011;37654;51.262;17.058;2023-04-16T02:55:51;110.18;;;44.35;;
51560;SDS011;37654;51.262;17.058;2023-04-16T02:58:18;102.18;;;41.20;;
51560;SDS011;37654;51.262;17.058;2023-04-16T03:00:44;103.93;;;42.70;;
51560;SDS011;37654;51.262;17.058;2023-04-16T03:03:10;99.63;;;41.35;;
51560;SDS011;37654;51.262;17.058;2023-04-16T03:05:36;101.68;;;42.03;;
51560;SDS011;37654;51.262;17.058;2023-04-16T03:08:02;100.18;;;41.38;;
51560;SDS011;37654;51.262;17.058;2023-04-16T03:10:27;101.20;;;42.55;;
51560;SDS011;37654;51.262;17.058;2023-04-16T03:12:53;93.93;;;41.42;;
51560;SDS011;37654;51.262;17.058;2023-04-16T03:15:18;92.85;;;38.60;;
51560;SDS011;37654;51.262;17.058;2023-04-16T03:17:44;96.78;;;43.25;;
51560;SDS011;37654;51.262;17.058;2023-04-16T03:20:10;102.03;;;38.10;;
51560;SDS011;37654;51.262;17.058;2023-04-16T03:22:36;94.82;;;41.45;;
51560;SDS011;37654;51.262;17.058;2023-04-16T03:25:02;98.93;;;41.67;;
51560;SDS011;37654;51.262;17.058;2023-04-16T03:27:28;104.72;;;44.50;;
51560;SDS011;37654;51.262;17.058;2023-04-16T03:29:54;110.78;;;44.50;;
51560;SDS011;37654;51.262;17.058;2023-04-16T03:32:19;113.03;;;47.38;;
51560;SDS011;37654;51.262;17.058;2023-04-16T03:34:44;114.55;;;45.80;;
51560;SDS011;37654;51.262;17.058;2023-04-16T03:37:10;105.30;;;45.58;;
51560;SDS011;37654;51.262;17.058;2023-04-16T03:39:36;112.22;;;46.67;;
51560;SDS011;37654;51.262;17.058;2023-04-16T03:42:01;109.95;;;46.28;;
51560;SDS011;37654;51.262;17.058;2023-04-16T03:44:27;106.47;;;45.85;;
51560;SDS011;37654;51.262;17.058;2023-04-16T03:46:53;109.22;;;45.78;;
51560;SDS011;37654;51.262;17.058;2023-04-16T03:49:18;110.07;;;46.28;;
51560;SDS011;37654;51.262;17.058;2023-04-16T03:51:44;104.05;;;45.10;;
51560;SDS011;37654;51.262;17.058;2023-04-16T03:54:10;90.55;;;44.75;;
51560;SDS011;37654;51.262;17.058;2023-04-16T03:56:35;91.63;;;45.40;;
51560;SDS011;37654;51.262;17.058;2023-04-16T03:59:01;96.18;;;45.33;;
51560;SDS011;37654;51.262;17.058;2023-04-16T04:01:26;97.35;;;43.67;;
51560;SDS011;37654;51.262;17.058;2023-04-16T04:03:52;92.60;;;44.22;;
51560;SDS011;37654;51.262;17.058;2023-04-16T04:06:17;93.70;;;41.65;;
51560;SDS011;37654;51.262;17.058;2023-04-16T04:08:42;92.13;;;40.28;;
51560;SDS011;37654;51.262;17.058;2023-04-16T04:11:08;89.05;;;40.30;;
51560;SDS011;37654;51.262;17.058;2023-04-16T04:13:33;91.25;;;40.63;;
51560;SDS011;37654;51.262;17.058;2023-04-16T04:15:59;87.32;;;39.38;;
51560;SDS011;37654;51.262;17.058;2023-04-16T04:18:25;92.30;;;42.20;;
51560;SDS011;37654;51.262;17.058;2023-04-16T04:20:50;81.38;;;38.50;;
51560;SDS011;37654;51.262;17.058;2023-04-16T04:23:17;83.72;;;37.95;;
51560;SDS011;37654;51.262;17.058;2023-04-16T04:25:43;79.60;;;35.33;;
51560;SDS011;37654;51.262;17.058;2023-04-16T04:28:08;76.60;;;37.25;;
51560;SDS011;37654;51.262;17.058;2023-04-16T04:30:34;80.47;;;35.22;;
51560;SDS011;37654;51.262;17.058;2023-04-16T04:33:00;72.68;;;35.20;;
51560;SDS011;37654;51.262;17.058;2023-04-16T04:35:25;74.05;;;36.30;;
51560;SDS011;37654;51.262;17.058;2023-04-16T04:37:50;73.97;;;37.97;;
51560;SDS011;37654;51.262;17.058;2023-04-16T04:40:16;73.78;;;37.13;;
51560;SDS011;37654;51.262;17.058;2023-04-16T04:42:41;72.15;;;38.42;;
51560;SDS011;37654;51.262;17.058;2023-04-16T04:45:07;67.97;;;35.80;;
51560;SDS011;37654;51.262;17.058;2023-04-16T04:47:33;61.92;;;33.47;;
51560;SDS011;37654;51.262;17.058;2023-04-16T04:49:58;65.18;;;35.05;;
51560;SDS011;37654;51.262;17.058;2023-04-16T04:52:24;62.10;;;34.58;;
51560;SDS011;37654;51.262;17.058;2023-04-16T04:54:49;51.65;;;27.85;;
51560;SDS011;37654;51.262;17.058;2023-04-16T04:57:15;53.78;;;27.75;;
51560;SDS011;37654;51.262;17.058;2023-04-16T04:59:40;42.53;;;23.73;;
51560;SDS011;37654;51.262;17.058;2023-04-16T05:02:06;44.47;;;22.33;;
51560;SDS011;37654;51.262;17.058;2023-04-16T05:04:31;43.08;;;22.17;;
51560;SDS011;37654;51.262;17.058;2023-04-16T05:06:57;38.55;;;21.27;;
51560;SDS011;37654;51.262;17.058;2023-04-16T05:09:22;39.85;;;21.27;;
51560;SDS011;37654;51.262;17.058;2023-04-16T05:11:47;36.40;;;22.90;;
51560;SDS011;37654;51.262;17.058;2023-04-16T05:14:13;36.45;;;20.08;;
51560;SDS011;37654;51.262;17.058;2023-04-16T05:16:38;31.65;;;17.35;;
51560;SDS011;37654;51.262;17.058;2023-04-16T05:19:04;29.10;;;16.33;;
51560;SDS011;37654;51.262;17.058;2023-04-16T05:21:29;29.40;;;17.50;;
51560;SDS011;37654;51.262;17.058;2023-04-16T05:23:55;32.45;;;19.38;;
51560;SDS011;37654;51.262;17.058;2023-04-16T05:26:20;41.20;;;21.42;;
51560;SDS011;37654;51.262;17.058;2023-04-16T05:28:46;38.00;;;22.85;;
51560;SDS011;37654;51.262;17.058;2023-04-16T05:31:12;42.42;;;26.33;;
51560;SDS011;37654;51.262;17.058;2023-04-16T05:33:38;37.05;;;21.17;;
51560;SDS011;37654;51.262;17.058;2023-04-16T05:36:03;33.75;;;17.95;;
51560;SDS011;37654;51.262;17.058;2023-04-16T05:38:29;33.70;;;18.10;;
51560;SDS011;37654;51.262;17.058;2023-04-16T05:40:54;31.52;;;17.90;;
51560;SDS011;37654;51.262;17.058;2023-04-16T05:43:20;34.08;;;20.17;;
51560;SDS011;37654;51.262;17.058;2023-04-16T05:45:45;30.90;;;17.83;;
51560;SDS011;37654;51.262;17.058;2023-04-16T05:48:11;26.90;;;15.35;;
51560;SDS011;37654;51.262;17.058;2023-04-16T05:50:37;27.25;;;15.85;;
51560;SDS011;37654;51.262;17.058;2023-04-16T05:53:04;25.17;;;15.07;;
51560;SDS011;37654;51.262;17.058;2023-04-16T05:55:31;25.27;;;15.07;;
51560;SDS011;37654;51.262;17.058;2023-04-16T05:57:57;21.15;;;13.68;;
51560;SDS011;37654;51.262;17.058;2023-04-16T06:00:22;22.55;;;14.63;;
51560;SDS011;37654;51.262;17.058;2023-04-16T06:02:48;26.60;;;14.23;;
51560;SDS011;37654;51.262;17.058;2023-04-16T06:05:14;30.98;;;14.52;;
51560;SDS011;37654;51.262;17.058;2023-04-16T06:07:40;60.92;;;16.55;;
51560;SDS011;37654;51.262;17.058;2023-04-16T06:10:05;66.75;;;16.08;;
51560;SDS011;37654;51.262;17.058;2023-04-16T06:12:31;68.28;;;17.88;;
51560;SDS011;37654;51.262;17.058;2023-04-16T06:14:56;56.53;;;18.27;;
51560;SDS011;37654;51.262;17.058;2023-04-16T06:17:22;122.97;;;19.13;;
51560;SDS011;37654;51.262;17.058;2023-04-16T06:19:47;87.03;;;18.70;;
51560;SDS011;37654;51.262;17.058;2023-04-16T06:22:13;58.78;;;15.98;;
51560;SDS011;37654;51.262;17.058;2023-04-16T06:24:38;49.88;;;16.42;;
51560;SDS011;37654;51.262;17.058;2023-04-16T06:27:04;40.72;;;16.73;;
51560;SDS011;37654;51.262;17.058;2023-04-16T06:29:30;41.22;;;17.65;;
51560;SDS011;37654;51.262;17.058;2023-04-16T06:31:55;39.47;;;18.80;;
51560;SDS011;37654;51.262;17.058;2023-04-16T06:34:21;33.42;;;16.30;;
51560;SDS011;37654;51.262;17.058;2023-04-16T06:36:46;38.28;;;15.75;;
51560;SDS011;37654;51.262;17.058;2023-04-16T06:39:11;27.15;;;14.23;;
51560;SDS011;37654;51.262;17.058;2023-04-16T06:41:37;31.27;;;13.63;;
51560;SDS011;37654;51.262;17.058;2023-04-16T06:44:02;37.78;;;14.57;;
51560;SDS011;37654;51.262;17.058;2023-04-16T06:46:28;45.80;;;14.80;;
51560;SDS011;37654;51.262;17.058;2023-04-16T06:48:53;37.47;;;15.02;;
51560;SDS011;37654;51.262;17.058;2023-04-16T06:51:19;60.45;;;16.55;;
51560;SDS011;37654;51.262;17.058;2023-04-16T06:53:44;56.67;;;16.45;;
51560;SDS011;37654;51.262;17.058;2023-04-16T06:56:10;31.48;;;14.02;;
51560;SDS011;37654;51.262;17.058;2023-04-16T06:58:35;33.25;;;13.68;;
51560;SDS011;37654;51.262;17.058;2023-04-16T07:01:01;51.08;;;13.98;;
51560;SDS011;37654;51.262;17.058;2023-04-16T07:03:26;27.88;;;13.30;;
51560;SDS011;37654;51.262;17.058;2023-04-16T07:05:52;17.92;;;10.98;;
51560;SDS011;37654;51.262;17.058;2023-04-16T07:08:17;17.92;;;10.90;;
51560;SDS011;37654;51.262;17.058;2023-04-16T07:10:43;19.65;;;10.68;;
51560;SDS011;37654;51.262;17.058;2023-04-16T07:13:09;21.02;;;11.27;;
51560;SDS011;37654;51.262;17.058;2023-04-16T07:15:34;16.13;;;11.35;;
51560;SDS011;37654;51.262;17.058;2023-04-16T07:18:00;14.77;;;10.65;;
51560;SDS011;37654;51.262;17.058;2023-04-16T07:20:25;14.32;;;9.82;;
51560;SDS011;37654;51.262;17.058;2023-04-16T07:22:51;14.10;;;10.50;;
51560;SDS011;37654;51.262;17.058;2023-04-16T07:25:16;13.60;;;9.27;;
51560;SDS011;37654;51.262;17.058;2023-04-16T07:27:41;12.52;;;10.00;;
51560;SDS011;37654;51.262;17.058;2023-04-16T07:30:07;11.93;;;10.00;;
51560;SDS011;37654;51.262;17.058;2023-04-16T07:32:33;12.88;;;9.88;;
51560;SDS011;37654;51.262;17.058;2023-04-16T07:34:59;13.57;;;10.40;;
51560;SDS011;37654;51.262;17.058;2023-04-16T07:37:24;12.45;;;10.13;;
51560;SDS011;37654;51.262;17.058;2023-04-16T07:39:50;14.20;;;10.80;;
51560;SDS011;37654;51.262;17.058;2023-04-16T07:42:16;14.13;;;10.68;;
51560;SDS011;37654;51.262;17.058;2023-04-16T07:44:42;14.57;;;11.70;;
51560;SDS011;37654;51.262;17.058;2023-04-16T07:47:08;12.65;;;10.23;;
51560;SDS011;37654;51.262;17.058;2023-04-16T07:49:33;12.68;;;9.40;;
51560;SDS011;37654;51.262;17.058;2023-04-16T07:51:59;10.88;;;9.15;;
51560;SDS011;37654;51.262;17.058;2023-04-16T07:54:24;9.95;;;8.88;;
51560;SDS011;37654;51.262;17.058;2023-04-16T07:56:50;10.05;;;8.95;;
51560;SDS011;37654;51.262;17.058;2023-04-16T07:59:16;10.27;;;8.50;;
51560;SDS011;37654;51.262;17.058;2023-04-16T08:01:41;10.13;;;8.80;;
51560;SDS011;37654;51.262;17.058;2023-04-16T08:04:06;8.75;;;7.88;;
51560;SDS011;37654;51.262;17.058;2023-04-16T08:06:32;8.40;;;7.60;;
51560;SDS011;37654;51.262;17.058;2023-04-16T08:08:57;9.93;;;8.55;;
51560;SDS011;37654;51.262;17.058;2023-04-16T08:11:23;9.32;;;8.02;;
51560;SDS011;37654;51.262;17.058;2023-04-16T08:13:48;12.48;;;9.68;;
51560;SDS011;37654;51.262;17.058;2023-04-16T08:16:14;10.35;;;9.27;;
51560;SDS011;37654;51.262;17.058;2023-04-16T08:18:39;10.10;;;9.07;;
51560;SDS011;37654;51.262;17.058;2023-04-16T08:21:05;6.60;;;5.80;;
51560;SDS011;37654;51.262;17.058;2023-04-16T08:23:30;7.63;;;6.00;;
51560;SDS011;37654;51.262;17.058;2023-04-16T08:25:56;6.10;;;4.65;;
51560;SDS011;37654;51.262;17.058;2023-04-16T08:28:22;4.95;;;4.10;;
51560;SDS011;37654;51.262;17.058;2023-04-16T08:30:47;5.72;;;5.05;;
51560;SDS011;37654;51.262;17.058;2023-04-16T08:33:13;6.70;;;5.10;;
51560;SDS011;37654;51.262;17.058;2023-04-16T08:35:38;7.25;;;6.55;;
51560;SDS011;37654;51.262;17.058;2023-04-16T08:38:05;7.93;;;6.72;;
51560;SDS011;37654;51.262;17.058;2023-04-16T08:40:31;7.65;;;6.45;;
51560;SDS011;37654;51.262;17.058;2023-04-16T08:42:59;9.88;;;7.00;;
51560;SDS011;37654;51.262;17.058;2023-04-16T08:45:29;8.55;;;7.18;;
51560;SDS011;37654;51.262;17.058;2023-04-16T08:47:58;7.63;;;6.57;;
51560;SDS011;37654;51.262;17.058;2023-04-16T08:50:25;8.25;;;7.05;;
51560;SDS011;37654;51.262;17.058;2023-04-16T08:52:59;8.93;;;7.32;;
51560;SDS011;37654;51.262;17.058;2023-04-16T08:55:36;7.88;;;7.07;;
51560;SDS011;37654;51.262;17.058;2023-04-16T08:58:12;9.05;;;7.60;;
51560;SDS011;37654;51.262;17.058;2023-04-16T09:00:39;10.95;;;8.23;;
51560;SDS011;37654;51.262;17.058;2023-04-16T09:03:06;8.32;;;7.43;;
51560;SDS011;37654;51.262;17.058;2023-04-16T09:05:32;8.15;;;6.85;;
51560;SDS011;37654;51.262;17.058;2023-04-16T09:07:58;7.68;;;6.68;;
51560;SDS011;37654;51.262;17.058;2023-04-16T09:10:25;8.07;;;7.25;;
51560;SDS011;37654;51.262;17.058;2023-04-16T09:12:51;6.78;;;6.05;;
51560;SDS011;37654;51.262;17.058;2023-04-16T09:15:19;6.32;;;5.72;;
51560;SDS011;37654;51.262;17.058;2023-04-16T09:17:45;7.70;;;6.40;;
51560;SDS011;37654;51.262;17.058;2023-04-16T09:20:11;7.00;;;6.05;;
51560;SDS011;37654;51.262;17.058;2023-04-16T09:22:37;6.53;;;5.70;;
51560;SDS011;37654;51.262;17.058;2023-04-16T09:25:04;7.05;;;6.00;;
51560;SDS011;37654;51.262;17.058;2023-04-16T09:27:31;7.50;;;6.05;;
51560;SDS011;37654;51.262;17.058;2023-04-16T09:29:56;6.15;;;5.55;;
51560;SDS011;37654;51.262;17.058;2023-04-16T09:32:23;6.85;;;5.68;;
51560;SDS011;37654;51.262;17.058;2023-04-16T09:34:57;6.70;;;5.20;;
51560;SDS011;37654;51.262;17.058;2023-04-16T09:37:27;6.65;;;5.60;;
51560;SDS011;37654;51.262;17.058;2023-04-16T09:39:55;6.00;;;5.38;;
51560;SDS011;37654;51.262;17.058;2023-04-16T09:42:31;7.05;;;5.65;;
51560;SDS011;37654;51.262;17.058;2023-04-16T09:44:58;6.35;;;5.72;;
51560;SDS011;37654;51.262;17.058;2023-04-16T09:47:25;4.15;;;3.75;;
51560;SDS011;37654;51.262;17.058;2023-04-16T09:50:02;6.53;;;5.82;;
51560;SDS011;37654;51.262;17.058;2023-04-16T09:52:27;5.43;;;4.93;;
51560;SDS011;37654;51.262;17.058;2023-04-16T09:54:53;6.80;;;5.35;;
51560;SDS011;37654;51.262;17.058;2023-04-16T09:57:19;5.63;;;5.13;;
51560;SDS011;37654;51.262;17.058;2023-04-16T10:00:00;4.93;;;4.53;;
51560;SDS011;37654;51.262;17.058;2023-04-16T10:02:27;5.65;;;5.00;;
51560;SDS011;37654;51.262;17.058;2023-04-16T10:04:53;5.80;;;5.30;;
51560;SDS011;37654;51.262;17.058;2023-04-16T10:07:19;5.80;;;5.30;;
51560;SDS011;37654;51.262;17.058;2023-04-16T10:09:45;5.10;;;4.45;;
51560;SDS011;37654;51.262;17.058;2023-04-16T10:12:12;6.53;;;4.88;;
51560;SDS011;37654;51.262;17.058;2023-04-16T10:14:38;4.47;;;4.07;;
51560;SDS011;37654;51.262;17.058;2023-04-16T10:17:05;3.50;;;3.20;;
51560;SDS011;37654;51.262;17.058;2023-04-16T10:19:31;3.63;;;2.90;;
51560;SDS011;37654;51.262;17.058;2023-04-16T10:21:57;3.60;;;2.95;;
51560;SDS011;37654;51.262;17.058;2023-04-16T10:24:27;3.90;;;3.03;;
51560;SDS011;37654;51.262;17.058;2023-04-16T10:26:54;4.82;;;4.43;;
51560;SDS011;37654;51.262;17.058;2023-04-16T10:29:20;6.53;;;5.85;;
51560;SDS011;37654;51.262;17.058;2023-04-16T10:31:46;6.93;;;5.78;;
51560;SDS011;37654;51.262;17.058;2023-04-16T10:34:13;6.82;;;5.57;;
51560;SDS011;37654;51.262;17.058;2023-04-16T10:36:39;6.38;;;5.60;;
51560;SDS011;37654;51.262;17.058;2023-04-16T10:39:08;6.05;;;5.45;;
51560;SDS011;37654;51.262;17.058;2023-04-16T10:41:36;6.15;;;5.28;;
51560;SDS011;37654;51.262;17.058;2023-04-16T10:44:06;5.22;;;4.38;;
51560;SDS011;37654;51.262;17.058;2023-04-16T10:46:37;6.25;;;4.55;;
51560;SDS011;37654;51.262;17.058;2023-04-16T10:54:23;6.25;;;5.30;;
51560;SDS011;37654;51.262;17.058;2023-04-16T10:56:55;5.25;;;4.53;;
51560;SDS011;37654;51.262;17.058;2023-04-16T10:59:22;5.32;;;4.40;;
51560;SDS011;37654;51.262;17.058;2023-04-16T11:01:54;5.80;;;4.00;;
51560;SDS011;37654;51.262;17.058;2023-04-16T11:12:34;4.10;;;3.55;;
51560;SDS011;37654;51.262;17.058;2023-04-16T11:17:35;5.20;;;4.13;;
51560;SDS011;37654;51.262;17.058;2023-04-16T11:20:04;5.82;;;4.72;;
51560;SDS011;37654;51.262;17.058;2023-04-16T11:22:34;7.82;;;5.22;;
51560;SDS011;37654;51.262;17.058;2023-04-16T11:25:01;5.90;;;4.47;;
51560;SDS011;37654;51.262;17.058;2023-04-16T11:27:28;5.60;;;4.15;;
51560;SDS011;37654;51.262;17.058;2023-04-16T11:30:02;5.85;;;4.03;;
51560;SDS011;37654;51.262;17.058;2023-04-16T11:32:32;5.35;;;3.50;;
51560;SDS011;37654;51.262;17.058;2023-04-16T11:35:00;5.65;;;3.78;;
51560;SDS011;37654;51.262;17.058;2023-04-16T11:37:34;5.25;;;4.00;;
51560;SDS011;37654;51.262;17.058;2023-04-16T11:40:02;4.25;;;3.50;;
51560;SDS011;37654;51.262;17.058;2023-04-16T11:42:31;6.00;;;3.88;;
51560;SDS011;37654;51.262;17.058;2023-04-16T11:44:58;5.57;;;3.60;;
51560;SDS011;37654;51.262;17.058;2023-04-16T11:47:27;6.55;;;4.38;;
51560;SDS011;37654;51.262;17.058;2023-04-16T11:49:53;4.40;;;3.42;;
51560;SDS011;37654;51.262;17.058;2023-04-16T11:52:29;5.35;;;4.00;;
51560;SDS011;37654;51.262;17.058;2023-04-16T11:54:57;3.60;;;2.72;;
51560;SDS011;37654;51.262;17.058;2023-04-16T11:57:24;4.60;;;2.83;;
51560;SDS011;37654;51.262;17.058;2023-04-16T11:59:52;5.85;;;2.78;;
51560;SDS011;37654;51.262;17.058;2023-04-16T12:02:32;6.20;;;3.00;;
51560;SDS011;37654;51.262;17.058;2023-04-16T12:05:05;3.42;;;2.75;;
51560;SDS011;37654;51.262;17.058;2023-04-16T12:07:52;4.82;;;3.03;;
51560;SDS011;37654;51.262;17.058;2023-04-16T12:10:18;4.07;;;2.63;;
51560;SDS011;37654;51.262;17.058;2023-04-16T12:12:43;4.35;;;2.78;;
51560;SDS011;37654;51.262;17.058;2023-04-16T12:15:08;2.15;;;1.70;;
51560;SDS011;37654;51.262;17.058;2023-04-16T12:17:35;2.20;;;1.48;;
51560;SDS011;37654;51.262;17.058;2023-04-16T12:20:03;2.72;;;1.80;;
51560;SDS011;37654;51.262;17.058;2023-04-16T12:22:39;1.17;;;1.05;;
51560;SDS011;37654;51.262;17.058;2023-04-16T12:25:12;2.90;;;2.15;;
51560;SDS011;37654;51.262;17.058;2023-04-16T12:27:49;2.47;;;1.63;;
51560;SDS011;37654;51.262;17.058;2023-04-16T12:30:17;2.80;;;1.45;;
51560;SDS011;37654;51.262;17.058;2023-04-16T12:32:45;3.38;;;2.20;;
51560;SDS011;37654;51.262;17.058;2023-04-16T12:35:12;4.05;;;2.28;;
51560;SDS011;37654;51.262;17.058;2023-04-16T12:37:38;4.35;;;2.50;;
51560;SDS011;37654;51.262;17.058;2023-04-16T12:40:05;4.35;;;2.65;;
51560;SDS011;37654;51.262;17.058;2023-04-16T12:42:31;2.90;;;2.20;;
51560;SDS011;37654;51.262;17.058;2023-04-16T12:45:03;3.40;;;2.53;;
51560;SDS011;37654;51.262;17.058;2023-04-16T12:47:30;4.63;;;2.42;;
51560;SDS011;37654;51.262;17.058;2023-04-16T12:49:56;3.03;;;2.22;;
51560;SDS011;37654;51.262;17.058;2023-04-16T12:52:22;3.28;;;2.42;;
51560;SDS011;37654;51.262;17.058;2023-04-16T12:54:48;3.33;;;2.38;;
51560;SDS011;37654;51.262;17.058;2023-04-16T12:57:14;4.13;;;2.92;;
51560;SDS011;37654;51.262;17.058;2023-04-16T12:59:40;3.20;;;2.28;;
51560;SDS011;37654;51.262;17.058;2023-04-16T13:02:06;2.45;;;1.92;;
51560;SDS011;37654;51.262;17.058;2023-04-16T13:04:31;3.85;;;2.30;;
51560;SDS011;37654;51.262;17.058;2023-04-16T13:06:56;3.83;;;2.65;;
51560;SDS011;37654;51.262;17.058;2023-04-16T13:09:22;4.22;;;2.53;;
51560;SDS011;37654;51.262;17.058;2023-04-16T13:11:47;4.93;;;2.45;;
51560;SDS011;37654;51.262;17.058;2023-04-16T13:14:13;3.28;;;2.53;;
51560;SDS011;37654;51.262;17.058;2023-04-16T13:16:38;3.42;;;2.22;;
51560;SDS011;37654;51.262;17.058;2023-04-16T13:19:04;3.97;;;2.47;;
51560;SDS011;37654;51.262;17.058;2023-04-16T13:21:29;4.28;;;2.50;;
51560;SDS011;37654;51.262;17.058;2023-04-16T13:23:55;3.42;;;2.20;;
51560;SDS011;37654;51.262;17.058;2023-04-16T13:26:21;2.72;;;1.80;;
51560;SDS011;37654;51.262;17.058;2023-04-16T13:28:46;2.97;;;2.67;;
51560;SDS011;37654;51.262;17.058;2023-04-16T13:31:11;2.38;;;2.10;;
51560;SDS011;37654;51.262;17.058;2023-04-16T13:33:39;2.88;;;2.25;;
51560;SDS011;37654;51.262;17.058;2023-04-16T13:36:05;3.08;;;2.30;;
51560;SDS011;37654;51.262;17.058;2023-04-16T13:38:30;2.78;;;2.10;;
51560;SDS011;37654;51.262;17.058;2023-04-16T13:40:56;3.28;;;2.17;;
51560;SDS011;37654;51.262;17.058;2023-04-16T13:43:21;2.85;;;2.10;;
51560;SDS011;37654;51.262;17.058;2023-04-16T13:45:47;2.38;;;1.80;;
51560;SDS011;37654;51.262;17.058;2023-04-16T13:48:12;2.65;;;1.73;;
51560;SDS011;37654;51.262;17.058;2023-04-16T13:50:38;3.17;;;2.15;;
51560;SDS011;37654;51.262;17.058;2023-04-16T13:53:03;6.07;;;2.72;;
51560;SDS011;37654;51.262;17.058;2023-04-16T13:55:29;14.02;;;3.58;;
51560;SDS011;37654;51.262;17.058;2023-04-16T13:57:55;3.92;;;2.20;;
51560;SDS011;37654;51.262;17.058;2023-04-16T14:00:21;4.30;;;2.47;;
51560;SDS011;37654;51.262;17.058;2023-04-16T14:02:47;5.28;;;3.60;;
51560;SDS011;37654;51.262;17.058;2023-04-16T14:05:13;4.10;;;2.50;;
51560;SDS011;37654;51.262;17.058;2023-04-16T14:07:38;3.67;;;2.40;;
51560;SDS011;37654;51.262;17.058;2023-04-16T14:10:04;3.15;;;2.15;;
51560;SDS011;37654;51.262;17.058;2023-04-16T14:12:30;2.55;;;1.80;;
51560;SDS011;37654;51.262;17.058;2023-04-16T14:14:56;3.65;;;2.25;;
51560;SDS011;37654;51.262;17.058;2023-04-16T14:17:22;2.63;;;1.92;;
51560;SDS011;37654;51.262;17.058;2023-04-16T14:19:47;3.45;;;2.28;;
51560;SDS011;37654;51.262;17.058;2023-04-16T14:22:13;1.67;;;1.30;;
51560;SDS011;37654;51.262;17.058;2023-04-16T14:24:41;2.67;;;1.88;;
51560;SDS011;37654;51.262;17.058;2023-04-16T14:27:07;2.53;;;1.88;;
51560;SDS011;37654;51.262;17.058;2023-04-16T14:29:33;2.97;;;1.98;;